sensor_id;sensor_type;location;lat;lon;timestamp;P1;P2;P0
70249;PMS5003;57644;48.416;-123.374;2023-02-15T00:01:55;4;2;
70249;PMS5003;57644;48.416;-123.374;2023-02-15T00:04:25;2;2;
70249;PMS5003;57644;48.416;-123.374;2023-02-15T00:06:56;0;0;
70249;PMS5003;57644;48.416;-123.374;2023-02-15T00:09:27;2;1;
70249;PMS5003;57644;48.416;-123.374;2023-02-15T00:11:57;1;1;
70249;PMS5003;57644;48.416;-123.374;2023-02-15T00:14:28;2;1;
70249;PMS5003;57644;48.416;-123.374;2023-02-15T00:16:58;5;3;
70249;PMS5003;57644;48.416;-123.374;2023-02-15T00:19:28;2;1;
70249;PMS5003;57644;48.416;-123.374;2023-02-15T00:21:59;8;5;
70249;PMS5003;57644;48.416;-123.374;2023-02-15T00:24:30;1;1;
70249;PMS5003;57644;48.416;-123.374;2023-02-15T00:27:00;2;1;
70249;PMS5003;57644;48.416;-123.374;2023-02-15T00:29:31;1;1;
70249;PMS5003;57644;48.416;-123.374;2023-02-15T00:32:01;2;2;
70249;PMS5003;57644;48.416;-123.374;2023-02-15T00:34:32;4;2;
70249;PMS5003;57644;48.416;-123.374;2023-02-15T00:37:02;2;2;
70249;PMS5003;57644;48.416;-123.374;2023-02-15T00:39:33;3;3;
70249;PMS5003;57644;48.416;-123.374;2023-02-15T00:42:03;2;2;
70249;PMS5003;57644;48.416;-123.374;2023-02-15T00:44:34;2;2;
70249;PMS5003;57644;48.416;-123.374;2023-02-15T00:47:05;2;2;
70249;PMS5003;57644;48.416;-123.374;2023-02-15T00:49:35;3;2;
70249;PMS5003;57644;48.416;-123.374;2023-02-15T00:52:06;3;2;
70249;PMS5003;57644;48.416;-123.374;2023-02-15T00:54:36;2;2;
70249;PMS5003;57644;48.416;-123.374;2023-02-15T00:57:07;3;3;
70249;PMS5003;57644;48.416;-123.374;2023-02-15T00:59:37;5;5;
70249;PMS5003;57644;48.416;-123.374;2023-02-15T01:02:08;11;10;
70249;PMS5003;57644;48.416;-123.374;2023-02-15T01:04:38;6;6;
70249;PMS5003;57644;48.416;-123.374;2023-02-15T01:07:09;2;2;
70249;PMS5003;57644;48.416;-123.374;2023-02-15T01:09:39;3;3;
70249;PMS5003;57644;48.416;-123.374;2023-02-15T01:12:10;4;4;
70249;PMS5003;57644;48.416;-123.374;2023-02-15T01:14:40;9;9;
70249;PMS5003;57644;48.416;-123.374;2023-02-15T01:17:11;8;8;
70249;PMS5003;57644;48.416;-123.374;2023-02-15T01:19:41;7;5;
70249;PMS5003;57644;48.416;-123.374;2023-02-15T01:22:11;7;5;
70249;PMS5003;57644;48.416;-123.374;2023-02-15T01:24:42;5;4;
70249;PMS5003;57644;48.416;-123.374;2023-02-15T01:27:13;4;4;
70249;PMS5003;57644;48.416;-123.374;2023-02-15T01:29:43;9;7;
70249;PMS5003;57644;48.416;-123.374;2023-02-15T01:32:14;20;15;
70249;PMS5003;57644;48.416;-123.374;2023-02-15T01:34:44;5;5;
70249;PMS5003;57644;48.416;-123.374;2023-02-15T01:37:15;9;9;
70249;PMS5003;57644;48.416;-123.374;2023-02-15T01:39:45;7;7;
70249;PMS5003;57644;48.416;-123.374;2023-02-15T01:42:20;8;6;
70249;PMS5003;57644;48.416;-123.374;2023-02-15T01:44:47;8;7;
70249;PMS5003;57644;48.416;-123.374;2023-02-15T01:47:18;7;5;
70249;PMS5003;57644;48.416;-123.374;2023-02-15T01:49:47;7;6;
70249;PMS5003;57644;48.416;-123.374;2023-02-15T01:52:18;4;3;
70249;PMS5003;57644;48.416;-123.374;2023-02-15T01:54:48;11;10;
70249;PMS5003;57644;48.416;-123.374;2023-02-15T01:57:20;8;8;
70249;PMS5003;57644;48.416;-123.374;2023-02-15T01:59:50;7;7;
70249;PMS5003;57644;48.416;-123.374;2023-02-15T02:02:20;5;5;
70249;PMS5003;57644;48.416;-123.374;2023-02-15T02:04:51;7;5;
70249;PMS5003;57644;48.416;-123.374;2023-02-15T02:07:22;3;3;
70249;PMS5003;57644;48.416;-123.374;2023-02-15T02:09:52;5;3;
70249;PMS5003;57644;48.416;-123.374;2023-02-15T02:12:22;4;3;
70249;PMS5003;57644;48.416;-123.374;2023-02-15T02:14:53;3;3;
70249;PMS5003;57644;48.416;-123.374;2023-02-15T02:17:26;3;2;
70249;PMS5003;57644;48.416;-123.374;2023-02-15T02:25:03;8;7;
70249;PMS5003;57644;48.416;-123.374;2023-02-15T02:27:29;9;7;
70249;PMS5003;57644;48.416;-123.374;2023-02-15T02:32:31;5;5;
70249;PMS5003;57644;48.416;-123.374;2023-02-15T02:34:58;6;6;
70249;PMS5003;57644;48.416;-123.374;2023-02-15T02:37:29;9;8;
70249;PMS5003;57644;48.416;-123.374;2023-02-15T02:39:59;9;9;
70249;PMS5003;57644;48.416;-123.374;2023-02-15T02:42:29;16;15;
70249;PMS5003;57644;48.416;-123.374;2023-02-15T02:45:00;13;10;
70249;PMS5003;57644;48.416;-123.374;2023-02-15T02:47:30;13;13;
70249;PMS5003;57644;48.416;-123.374;2023-02-15T02:50:03;13;12;
70249;PMS5003;57644;48.416;-123.374;2023-02-15T02:52:35;12;11;
70249;PMS5003;57644;48.416;-123.374;2023-02-15T02:55:02;14;13;
70249;PMS5003;57644;48.416;-123.374;2023-02-15T02:57:33;48;48;
70249;PMS5003;57644;48.416;-123.374;2023-02-15T03:00:03;21;19;
70249;PMS5003;57644;48.416;-123.374;2023-02-15T03:02:34;20;19;
70249;PMS5003;57644;48.416;-123.374;2023-02-15T03:05:05;12;12;
70249;PMS5003;57644;48.416;-123.374;2023-02-15T03:07:34;57;53;
70249;PMS5003;57644;48.416;-123.374;2023-02-15T03:10:05;5;5;
70249;PMS5003;57644;48.416;-123.374;2023-02-15T03:12:35;4;3;
70249;PMS5003;57644;48.416;-123.374;2023-02-15T03:15:08;6;5;
70249;PMS5003;57644;48.416;-123.374;2023-02-15T03:17:37;13;12;
70249;PMS5003;57644;48.416;-123.374;2023-02-15T03:20:07;9;9;
70249;PMS5003;57644;48.416;-123.374;2023-02-15T03:22:38;7;6;
70249;PMS5003;57644;48.416;-123.374;2023-02-15T03:25:09;11;10;
70249;PMS5003;57644;48.416;-123.374;2023-02-15T03:27:40;9;9;
70249;PMS5003;57644;48.416;-123.374;2023-02-15T03:30:08;7;7;
70249;PMS5003;57644;48.416;-123.374;2023-02-15T03:32:39;8;7;
70249;PMS5003;57644;48.416;-123.374;2023-02-15T03:35:09;11;10;
70249;PMS5003;57644;48.416;-123.374;2023-02-15T03:37:40;8;8;
70249;PMS5003;57644;48.416;-123.374;2023-02-15T03:40:11;7;7;
70249;PMS5003;57644;48.416;-123.374;2023-02-15T03:42:41;8;8;
70249;PMS5003;57644;48.416;-123.374;2023-02-15T03:45:13;12;11;
70249;PMS5003;57644;48.416;-123.374;2023-02-15T03:47:43;15;13;
70249;PMS5003;57644;48.416;-123.374;2023-02-15T03:50:13;10;10;
70249;PMS5003;57644;48.416;-123.374;2023-02-15T03:52:43;13;13;
70249;PMS5003;57644;48.416;-123.374;2023-02-15T03:55:13;10;10;
70249;PMS5003;57644;48.416;-123.374;2023-02-15T03:57:44;10;10;
70249;PMS5003;57644;48.416;-123.374;2023-02-15T04:00:15;10;10;
70249;PMS5003;57644;48.416;-123.374;2023-02-15T04:02:47;10;10;
70249;PMS5003;57644;48.416;-123.374;2023-02-15T04:05:15;12;11;
70249;PMS5003;57644;48.416;-123.374;2023-02-15T04:07:46;9;8;
70249;PMS5003;57644;48.416;-123.374;2023-02-15T04:10:16;10;8;
70249;PMS5003;57644;48.416;-123.374;2023-02-15T04:12:47;9;9;
70249;PMS5003;57644;48.416;-123.374;2023-02-15T04:15:17;7;7;
70249;PMS5003;57644;48.416;-123.374;2023-02-15T04:17:48;8;8;
70249;PMS5003;57644;48.416;-123.374;2023-02-15T04:20:19;10;10;
70249;PMS5003;57644;48.416;-123.374;2023-02-15T04:22:49;7;7;
70249;PMS5003;57644;48.416;-123.374;2023-02-15T04:25:20;7;7;
70249;PMS5003;57644;48.416;-123.374;2023-02-15T04:27:51;9;8;
70249;PMS5003;57644;48.416;-123.374;2023-02-15T04:30:22;7;5;
70249;PMS5003;57644;48.416;-123.374;2023-02-15T04:32:53;8;7;
70249;PMS5003;57644;48.416;-123.374;2023-02-15T04:35:22;9;9;
70249;PMS5003;57644;48.416;-123.374;2023-02-15T04:37:53;6;6;
70249;PMS5003;57644;48.416;-123.374;2023-02-15T04:40:23;9;8;
70249;PMS5003;57644;48.416;-123.374;2023-02-15T04:42:54;11;10;
70249;PMS5003;57644;48.416;-123.374;2023-02-15T04:45:24;9;8;
70249;PMS5003;57644;48.416;-123.374;2023-02-15T04:47:55;7;7;
70249;PMS5003;57644;48.416;-123.374;2023-02-15T04:50:25;9;8;
70249;PMS5003;57644;48.416;-123.374;2023-02-15T04:52:56;8;8;
70249;PMS5003;57644;48.416;-123.374;2023-02-15T04:55:27;9;7;
70249;PMS5003;57644;48.416;-123.374;2023-02-15T04:57:57;9;9;
70249;PMS5003;57644;48.416;-123.374;2023-02-15T05:00:27;10;9;
70249;PMS5003;57644;48.416;-123.374;2023-02-15T05:02:58;13;12;
70249;PMS5003;57644;48.416;-123.374;2023-02-15T05:05:28;14;12;
70249;PMS5003;57644;48.416;-123.374;2023-02-15T05:07:59;11;9;
70249;PMS5003;57644;48.416;-123.374;2023-02-15T05:10:29;13;12;
70249;PMS5003;57644;48.416;-123.374;2023-02-15T05:13:00;11;9;
70249;PMS5003;57644;48.416;-123.374;2023-02-15T05:15:30;9;9;
70249;PMS5003;57644;48.416;-123.374;2023-02-15T05:18:01;13;11;
70249;PMS5003;57644;48.416;-123.374;2023-02-15T05:20:31;14;14;
70249;PMS5003;57644;48.416;-123.374;2023-02-15T05:23:01;13;13;
70249;PMS5003;57644;48.416;-123.374;2023-02-15T05:25:32;18;17;
70249;PMS5003;57644;48.416;-123.374;2023-02-15T05:28:03;21;20;
70249;PMS5003;57644;48.416;-123.374;2023-02-15T05:30:32;21;19;
70249;PMS5003;57644;48.416;-123.374;2023-02-15T05:33:03;26;24;
70249;PMS5003;57644;48.416;-123.374;2023-02-15T05:35:33;30;27;
70249;PMS5003;57644;48.416;-123.374;2023-02-15T05:38:03;27;27;
70249;PMS5003;57644;48.416;-123.374;2023-02-15T05:40:33;30;28;
70249;PMS5003;57644;48.416;-123.374;2023-02-15T05:43:04;26;23;
70249;PMS5003;57644;48.416;-123.374;2023-02-15T05:45:34;26;25;
70249;PMS5003;57644;48.416;-123.374;2023-02-15T05:48:04;28;25;
70249;PMS5003;57644;48.416;-123.374;2023-02-15T05:50:35;26;26;
70249;PMS5003;57644;48.416;-123.374;2023-02-15T05:53:06;28;27;
70249;PMS5003;57644;48.416;-123.374;2023-02-15T05:55:37;36;31;
70249;PMS5003;57644;48.416;-123.374;2023-02-15T05:58:07;42;37;
70249;PMS5003;57644;48.416;-123.374;2023-02-15T06:00:37;31;29;
70249;PMS5003;57644;48.416;-123.374;2023-02-15T06:03:08;31;31;
70249;PMS5003;57644;48.416;-123.374;2023-02-15T06:05:38;32;30;
70249;PMS5003;57644;48.416;-123.374;2023-02-15T06:08:09;34;33;
70249;PMS5003;57644;48.416;-123.374;2023-02-15T06:10:40;32;32;
70249;PMS5003;57644;48.416;-123.374;2023-02-15T06:13:10;30;28;
70249;PMS5003;57644;48.416;-123.374;2023-02-15T06:15:40;25;23;
70249;PMS5003;57644;48.416;-123.374;2023-02-15T06:18:11;34;27;
70249;PMS5003;57644;48.416;-123.374;2023-02-15T06:20:41;25;24;
70249;PMS5003;57644;48.416;-123.374;2023-02-15T06:23:12;21;20;
70249;PMS5003;57644;48.416;-123.374;2023-02-15T06:25:42;24;23;
70249;PMS5003;57644;48.416;-123.374;2023-02-15T06:28:12;26;25;
70249;PMS5003;57644;48.416;-123.374;2023-02-15T06:30:43;26;24;
70249;PMS5003;57644;48.416;-123.374;2023-02-15T06:33:13;31;28;
70249;PMS5003;57644;48.416;-123.374;2023-02-15T06:35:43;25;25;
70249;PMS5003;57644;48.416;-123.374;2023-02-15T06:38:14;21;20;
70249;PMS5003;57644;48.416;-123.374;2023-02-15T06:40:44;25;22;
70249;PMS5003;57644;48.416;-123.374;2023-02-15T06:43:15;21;20;
70249;PMS5003;57644;48.416;-123.374;2023-02-15T06:45:45;21;19;
70249;PMS5003;57644;48.416;-123.374;2023-02-15T06:48:16;24;22;
70249;PMS5003;57644;48.416;-123.374;2023-02-15T06:50:46;23;22;
70249;PMS5003;57644;48.416;-123.374;2023-02-15T06:53:17;21;20;
70249;PMS5003;57644;48.416;-123.374;2023-02-15T06:55:47;27;23;
70249;PMS5003;57644;48.416;-123.374;2023-02-15T06:58:19;30;29;
70249;PMS5003;57644;48.416;-123.374;2023-02-15T07:00:47;23;23;
70249;PMS5003;57644;48.416;-123.374;2023-02-15T07:03:18;29;28;
70249;PMS5003;57644;48.416;-123.374;2023-02-15T07:05:48;20;20;
70249;PMS5003;57644;48.416;-123.374;2023-02-15T07:08:18;27;26;
70249;PMS5003;57644;48.416;-123.374;2023-02-15T07:10:49;23;21;
70249;PMS5003;57644;48.416;-123.374;2023-02-15T07:13:20;21;20;
70249;PMS5003;57644;48.416;-123.374;2023-02-15T07:15:50;26;23;
70249;PMS5003;57644;48.416;-123.374;2023-02-15T07:18:21;25;25;
70249;PMS5003;57644;48.416;-123.374;2023-02-15T07:20:51;28;26;
70249;PMS5003;57644;48.416;-123.374;2023-02-15T07:23:21;25;21;
70249;PMS5003;57644;48.416;-123.374;2023-02-15T07:25:56;27;26;
70249;PMS5003;57644;48.416;-123.374;2023-02-15T07:28:22;22;21;
70249;PMS5003;57644;48.416;-123.374;2023-02-15T07:30:52;24;24;
70249;PMS5003;57644;48.416;-123.374;2023-02-15T07:33:23;28;27;
70249;PMS5003;57644;48.416;-123.374;2023-02-15T07:35:54;26;23;
70249;PMS5003;57644;48.416;-123.374;2023-02-15T07:38:24;33;30;
70249;PMS5003;57644;48.416;-123.374;2023-02-15T07:40:57;33;26;
70249;PMS5003;57644;48.416;-123.374;2023-02-15T07:43:24;33;31;
70249;PMS5003;57644;48.416;-123.374;2023-02-15T07:45:58;32;31;
70249;PMS5003;57644;48.416;-123.374;2023-02-15T07:48:25;37;33;
70249;PMS5003;57644;48.416;-123.374;2023-02-15T07:50:58;34;33;
70249;PMS5003;57644;48.416;-123.374;2023-02-15T07:53:26;35;33;
70249;PMS5003;57644;48.416;-123.374;2023-02-15T07:55:58;44;42;
70249;PMS5003;57644;48.416;-123.374;2023-02-15T07:58:27;51;49;
70249;PMS5003;57644;48.416;-123.374;2023-02-15T08:00:58;41;40;
70249;PMS5003;57644;48.416;-123.374;2023-02-15T08:03:28;46;44;
70249;PMS5003;57644;48.416;-123.374;2023-02-15T08:05:59;49;43;
70249;PMS5003;57644;48.416;-123.374;2023-02-15T08:08:29;48;46;
70249;PMS5003;57644;48.416;-123.374;2023-02-15T08:11:00;43;41;
70249;PMS5003;57644;48.416;-123.374;2023-02-15T08:13:30;49;43;
70249;PMS5003;57644;48.416;-123.374;2023-02-15T08:16:00;43;43;
70249;PMS5003;57644;48.416;-123.374;2023-02-15T08:18:31;45;39;
70249;PMS5003;57644;48.416;-123.374;2023-02-15T08:21:02;42;40;
70249;PMS5003;57644;48.416;-123.374;2023-02-15T08:23:32;46;41;
70249;PMS5003;57644;48.416;-123.374;2023-02-15T08:26:03;41;38;
70249;PMS5003;57644;48.416;-123.374;2023-02-15T08:28:33;38;36;
70249;PMS5003;57644;48.416;-123.374;2023-02-15T08:31:05;42;40;
70249;PMS5003;57644;48.416;-123.374;2023-02-15T08:33:36;48;44;
70249;PMS5003;57644;48.416;-123.374;2023-02-15T08:36:06;50;45;
70249;PMS5003;57644;48.416;-123.374;2023-02-15T08:38:35;42;41;
70249;PMS5003;57644;48.416;-123.374;2023-02-15T08:41:09;43;42;
70249;PMS5003;57644;48.416;-123.374;2023-02-15T08:43:36;39;38;
70249;PMS5003;57644;48.416;-123.374;2023-02-15T08:46:07;36;35;
70249;PMS5003;57644;48.416;-123.374;2023-02-15T08:48:37;48;41;
70249;PMS5003;57644;48.416;-123.374;2023-02-15T08:51:09;45;42;
70249;PMS5003;57644;48.416;-123.374;2023-02-15T08:53:38;38;37;
70249;PMS5003;57644;48.416;-123.374;2023-02-15T08:56:08;42;36;
70249;PMS5003;57644;48.416;-123.374;2023-02-15T08:58:39;37;35;
70249;PMS5003;57644;48.416;-123.374;2023-02-15T09:01:10;37;34;
70249;PMS5003;57644;48.416;-123.374;2023-02-15T09:03:40;34;33;
70249;PMS5003;57644;48.416;-123.374;2023-02-15T09:06:11;40;37;
70249;PMS5003;57644;48.416;-123.374;2023-02-15T09:08:41;32;29;
70249;PMS5003;57644;48.416;-123.374;2023-02-15T09:11:13;33;31;
70249;PMS5003;57644;48.416;-123.374;2023-02-15T09:13:42;33;33;
70249;PMS5003;57644;48.416;-123.374;2023-02-15T09:16:12;33;30;
70249;PMS5003;57644;48.416;-123.374;2023-02-15T09:18:42;32;30;
70249;PMS5003;57644;48.416;-123.374;2023-02-15T09:21:14;30;30;
70249;PMS5003;57644;48.416;-123.374;2023-02-15T09:23:44;36;30;
70249;PMS5003;57644;48.416;-123.374;2023-02-15T09:26:14;36;33;
70249;PMS5003;57644;48.416;-123.374;2023-02-15T09:28:44;31;30;
70249;PMS5003;57644;48.416;-123.374;2023-02-15T09:31:15;32;29;
70249;PMS5003;57644;48.416;-123.374;2023-02-15T09:33:45;27;26;
70249;PMS5003;57644;48.416;-123.374;2023-02-15T09:36:16;28;26;
70249;PMS5003;57644;48.416;-123.374;2023-02-15T09:38:46;29;27;
70249;PMS5003;57644;48.416;-123.374;2023-02-15T09:41:21;29;26;
70249;PMS5003;57644;48.416;-123.374;2023-02-15T09:43:49;29;27;
70249;PMS5003;57644;48.416;-123.374;2023-02-15T09:46:25;26;24;
70249;PMS5003;57644;48.416;-123.374;2023-02-15T09:48:48;25;24;
70249;PMS5003;57644;48.416;-123.374;2023-02-15T09:53:54;27;24;
70249;PMS5003;57644;48.416;-123.374;2023-02-15T09:56:22;24;24;
70249;PMS5003;57644;48.416;-123.374;2023-02-15T09:58:52;20;19;
70249;PMS5003;57644;48.416;-123.374;2023-02-15T10:01:24;21;20;
70249;PMS5003;57644;48.416;-123.374;2023-02-15T10:03:55;25;24;
70249;PMS5003;57644;48.416;-123.374;2023-02-15T10:06:26;24;23;
70249;PMS5003;57644;48.416;-123.374;2023-02-15T10:08:57;23;21;
70249;PMS5003;57644;48.416;-123.374;2023-02-15T10:11:24;22;22;
70249;PMS5003;57644;48.416;-123.374;2023-02-15T10:13:56;24;23;
70249;PMS5003;57644;48.416;-123.374;2023-02-15T10:16:25;25;24;
70249;PMS5003;57644;48.416;-123.374;2023-02-15T10:18:55;24;23;
70249;PMS5003;57644;48.416;-123.374;2023-02-15T10:21:29;24;23;
70249;PMS5003;57644;48.416;-123.374;2023-02-15T10:24:00;24;22;
70249;PMS5003;57644;48.416;-123.374;2023-02-15T10:26:27;22;22;
70249;PMS5003;57644;48.416;-123.374;2023-02-15T10:28:57;23;23;
70249;PMS5003;57644;48.416;-123.374;2023-02-15T10:31:27;27;26;
70249;PMS5003;57644;48.416;-123.374;2023-02-15T10:34:01;22;21;
70249;PMS5003;57644;48.416;-123.374;2023-02-15T10:36:30;27;26;
70249;PMS5003;57644;48.416;-123.374;2023-02-15T10:38:58;24;24;
70249;PMS5003;57644;48.416;-123.374;2023-02-15T10:41:31;25;22;
70249;PMS5003;57644;48.416;-123.374;2023-02-15T10:44:00;23;23;
70249;PMS5003;57644;48.416;-123.374;2023-02-15T10:46:33;26;24;
70249;PMS5003;57644;48.416;-123.374;2023-02-15T10:49:03;33;29;
70249;PMS5003;57644;48.416;-123.374;2023-02-15T10:51:30;29;27;
70249;PMS5003;57644;48.416;-123.374;2023-02-15T10:54:05;25;25;
70249;PMS5003;57644;48.416;-123.374;2023-02-15T10:56:31;25;24;
70249;PMS5003;57644;48.416;-123.374;2023-02-15T11:01:32;26;26;
70249;PMS5003;57644;48.416;-123.374;2023-02-15T11:04:07;29;27;
70249;PMS5003;57644;48.416;-123.374;2023-02-15T11:06:31;30;29;
70249;PMS5003;57644;48.416;-123.374;2023-02-15T11:09:03;33;31;
70249;PMS5003;57644;48.416;-123.374;2023-02-15T11:11:34;34;31;
70249;PMS5003;57644;48.416;-123.374;2023-02-15T11:14:05;31;29;
70249;PMS5003;57644;48.416;-123.374;2023-02-15T11:16:36;37;36;
70249;PMS5003;57644;48.416;-123.374;2023-02-15T11:19:05;33;30;
70249;PMS5003;57644;48.416;-123.374;2023-02-15T11:21:36;40;35;
70249;PMS5003;57644;48.416;-123.374;2023-02-15T11:24:08;32;31;
70249;PMS5003;57644;48.416;-123.374;2023-02-15T11:26:37;27;27;
70249;PMS5003;57644;48.416;-123.374;2023-02-15T11:29:07;27;26;
70249;PMS5003;57644;48.416;-123.374;2023-02-15T11:31:41;32;28;
70249;PMS5003;57644;48.416;-123.374;2023-02-15T11:34:11;27;26;
70249;PMS5003;57644;48.416;-123.374;2023-02-15T11:36:38;28;26;
70249;PMS5003;57644;48.416;-123.374;2023-02-15T11:39:09;27;25;
70249;PMS5003;57644;48.416;-123.374;2023-02-15T11:41:40;27;23;
70249;PMS5003;57644;48.416;-123.374;2023-02-15T11:44:11;24;22;
70249;PMS5003;57644;48.416;-123.374;2023-02-15T11:46:40;31;30;
70249;PMS5003;57644;48.416;-123.374;2023-02-15T11:49:15;23;22;
70249;PMS5003;57644;48.416;-123.374;2023-02-15T11:51:41;27;24;
70249;PMS5003;57644;48.416;-123.374;2023-02-15T11:54:11;28;23;
70249;PMS5003;57644;48.416;-123.374;2023-02-15T11:56:42;28;28;
70249;PMS5003;57644;48.416;-123.374;2023-02-15T11:59:15;27;25;
70249;PMS5003;57644;48.416;-123.374;2023-02-15T12:01:44;32;27;
70249;PMS5003;57644;48.416;-123.374;2023-02-15T12:04:15;34;28;
70249;PMS5003;57644;48.416;-123.374;2023-02-15T12:06:45;22;21;
70249;PMS5003;57644;48.416;-123.374;2023-02-15T12:09:17;29;26;
70249;PMS5003;57644;48.416;-123.374;2023-02-15T12:11:45;28;28;
70249;PMS5003;57644;48.416;-123.374;2023-02-15T12:14:15;25;23;
70249;PMS5003;57644;48.416;-123.374;2023-02-15T12:16:46;27;26;
70249;PMS5003;57644;48.416;-123.374;2023-02-15T12:21:48;29;25;
70249;PMS5003;57644;48.416;-123.374;2023-02-15T12:24:17;22;21;
70249;PMS5003;57644;48.416;-123.374;2023-02-15T12:26:54;27;26;
70249;PMS5003;57644;48.416;-123.374;2023-02-15T12:29:16;32;26;
70249;PMS5003;57644;48.416;-123.374;2023-02-15T12:31:47;26;24;
70249;PMS5003;57644;48.416;-123.374;2023-02-15T12:34:18;33;29;
70249;PMS5003;57644;48.416;-123.374;2023-02-15T12:36:48;31;24;
70249;PMS5003;57644;48.416;-123.374;2023-02-15T12:39:20;24;22;
70249;PMS5003;57644;48.416;-123.374;2023-02-15T12:44:19;21;20;
70249;PMS5003;57644;48.416;-123.374;2023-02-15T12:49:20;21;21;
70249;PMS5003;57644;48.416;-123.374;2023-02-15T12:51:50;18;18;
70249;PMS5003;57644;48.416;-123.374;2023-02-15T12:54:27;20;18;
70249;PMS5003;57644;48.416;-123.374;2023-02-15T12:56:51;20;20;
70249;PMS5003;57644;48.416;-123.374;2023-02-15T12:59:21;18;16;
70249;PMS5003;57644;48.416;-123.374;2023-02-15T13:01:51;22;22;
70249;PMS5003;57644;48.416;-123.374;2023-02-15T13:04:23;22;20;
70249;PMS5003;57644;48.416;-123.374;2023-02-15T13:06:53;23;21;
70249;PMS5003;57644;48.416;-123.374;2023-02-15T13:09:25;25;21;
70249;PMS5003;57644;48.416;-123.374;2023-02-15T13:11:53;29;25;
70249;PMS5003;57644;48.416;-123.374;2023-02-15T13:14:27;24;22;
70249;PMS5003;57644;48.416;-123.374;2023-02-15T13:16:55;23;21;
70249;PMS5003;57644;48.416;-123.374;2023-02-15T13:19:26;20;19;
70249;PMS5003;57644;48.416;-123.374;2023-02-15T13:21:55;20;19;
70249;PMS5003;57644;48.416;-123.374;2023-02-15T13:24:27;21;16;
70249;PMS5003;57644;48.416;-123.374;2023-02-15T13:26:57;27;25;
70249;PMS5003;57644;48.416;-123.374;2023-02-15T13:29:28;20;19;
70249;PMS5003;57644;48.416;-123.374;2023-02-15T13:32:01;21;15;
70249;PMS5003;57644;48.416;-123.374;2023-02-15T13:34:29;19;18;
70249;PMS5003;57644;48.416;-123.374;2023-02-15T13:37:01;24;20;
70249;PMS5003;57644;48.416;-123.374;2023-02-15T13:39:31;20;19;
70249;PMS5003;57644;48.416;-123.374;2023-02-15T13:42:02;23;20;
70249;PMS5003;57644;48.416;-123.374;2023-02-15T13:47:05;25;22;
70249;PMS5003;57644;48.416;-123.374;2023-02-15T13:49:35;20;18;
70249;PMS5003;57644;48.416;-123.374;2023-02-15T13:52:04;20;19;
70249;PMS5003;57644;48.416;-123.374;2023-02-15T13:57:08;23;23;
70249;PMS5003;57644;48.416;-123.374;2023-02-15T14:02:08;25;20;
70249;PMS5003;57644;48.416;-123.374;2023-02-15T14:04:37;20;19;
70249;PMS5003;57644;48.416;-123.374;2023-02-15T14:07:08;19;19;
70249;PMS5003;57644;48.416;-123.374;2023-02-15T14:09:38;21;21;
70249;PMS5003;57644;48.416;-123.374;2023-02-15T14:12:15;28;26;
70249;PMS5003;57644;48.416;-123.374;2023-02-15T14:14:39;25;22;
70249;PMS5003;57644;48.416;-123.374;2023-02-15T14:17:07;24;23;
70249;PMS5003;57644;48.416;-123.374;2023-02-15T14:19:37;23;23;
70249;PMS5003;57644;48.416;-123.374;2023-02-15T14:22:07;23;22;
70249;PMS5003;57644;48.416;-123.374;2023-02-15T14:24:37;29;24;
70249;PMS5003;57644;48.416;-123.374;2023-02-15T14:27:09;19;19;
70249;PMS5003;57644;48.416;-123.374;2023-02-15T14:29:41;27;24;
70249;PMS5003;57644;48.416;-123.374;2023-02-15T14:32:09;25;24;
70249;PMS5003;57644;48.416;-123.374;2023-02-15T14:34:40;21;21;
70249;PMS5003;57644;48.416;-123.374;2023-02-15T14:37:08;22;21;
70249;PMS5003;57644;48.416;-123.374;2023-02-15T14:39:42;25;25;
70249;PMS5003;57644;48.416;-123.374;2023-02-15T14:42:10;18;18;
70249;PMS5003;57644;48.416;-123.374;2023-02-15T14:44:42;23;19;
70249;PMS5003;57644;48.416;-123.374;2023-02-15T14:47:11;19;18;
70249;PMS5003;57644;48.416;-123.374;2023-02-15T14:49:41;22;21;
70249;PMS5003;57644;48.416;-123.374;2023-02-15T14:52:12;21;20;
70249;PMS5003;57644;48.416;-123.374;2023-02-15T14:59:45;24;21;
70249;PMS5003;57644;48.416;-123.374;2023-02-15T15:02:13;24;23;
70249;PMS5003;57644;48.416;-123.374;2023-02-15T15:04:44;23;21;
70249;PMS5003;57644;48.416;-123.374;2023-02-15T15:07:17;28;27;
70249;PMS5003;57644;48.416;-123.374;2023-02-15T15:09:45;28;26;
70249;PMS5003;57644;48.416;-123.374;2023-02-15T15:14:45;28;27;
70249;PMS5003;57644;48.416;-123.374;2023-02-15T15:22:17;24;23;
70249;PMS5003;57644;48.416;-123.374;2023-02-15T15:24:50;26;25;
70249;PMS5003;57644;48.416;-123.374;2023-02-15T15:29:50;31;29;
70249;PMS5003;57644;48.416;-123.374;2023-02-15T15:32:19;29;27;
70249;PMS5003;57644;48.416;-123.374;2023-02-15T15:34:54;32;29;
70249;PMS5003;57644;48.416;-123.374;2023-02-15T15:37:28;35;30;
70249;PMS5003;57644;48.416;-123.374;2023-02-15T15:40:00;31;27;
70249;PMS5003;57644;48.416;-123.374;2023-02-15T15:42:24;27;27;
70249;PMS5003;57644;48.416;-123.374;2023-02-15T15:47:25;31;26;
70249;PMS5003;57644;48.416;-123.374;2023-02-15T15:49:54;31;29;
70249;PMS5003;57644;48.416;-123.374;2023-02-15T15:52:22;30;30;
70249;PMS5003;57644;48.416;-123.374;2023-02-15T15:54:57;37;32;
70249;PMS5003;57644;48.416;-123.374;2023-02-15T15:57:25;29;27;
70249;PMS5003;57644;48.416;-123.374;2023-02-15T15:59:54;32;31;
70249;PMS5003;57644;48.416;-123.374;2023-02-15T16:02:23;33;29;
70249;PMS5003;57644;48.416;-123.374;2023-02-15T16:04:54;40;36;
70249;PMS5003;57644;48.416;-123.374;2023-02-15T16:07:25;34;29;
70249;PMS5003;57644;48.416;-123.374;2023-02-15T16:09:55;38;36;
70249;PMS5003;57644;48.416;-123.374;2023-02-15T16:12:27;35;33;
70249;PMS5003;57644;48.416;-123.374;2023-02-15T16:14:55;34;34;
70249;PMS5003;57644;48.416;-123.374;2023-02-15T16:17:26;40;38;
70249;PMS5003;57644;48.416;-123.374;2023-02-15T16:19:57;39;34;
70249;PMS5003;57644;48.416;-123.374;2023-02-15T16:22:27;41;40;
70249;PMS5003;57644;48.416;-123.374;2023-02-15T16:25:00;43;38;
70249;PMS5003;57644;48.416;-123.374;2023-02-15T16:27:29;40;34;
70249;PMS5003;57644;48.416;-123.374;2023-02-15T16:29:57;45;41;
70249;PMS5003;57644;48.416;-123.374;2023-02-15T16:32:27;48;41;
70249;PMS5003;57644;48.416;-123.374;2023-02-15T16:34:58;45;43;
70249;PMS5003;57644;48.416;-123.374;2023-02-15T16:37:31;47;42;
70249;PMS5003;57644;48.416;-123.374;2023-02-15T16:39:58;45;42;
70249;PMS5003;57644;48.416;-123.374;2023-02-15T16:42:29;37;32;